createdAt,value
2022-09-01T00:01:03.246Z,13.35
2022-09-01T00:02:08.597Z,13.35
2022-09-01T00:03:12.565Z,13.34
2022-09-01T00:04:17.360Z,13.34
2022-09-01T00:05:20.773Z,13.33
2022-09-01T00:06:24.919Z,13.34
2022-09-01T00:07:30.197Z,13.32
2022-09-01T00:08:32.647Z,13.33
2022-09-01T00:09:36.845Z,13.31
2022-09-01T00:10:39.572Z,13.31
2022-09-01T00:11:47.876Z,13.32
2022-09-01T00:12:52.855Z,13.30
2022-09-01T00:13:57.199Z,13.30
2022-09-01T00:14:59.823Z,13.29
2022-09-01T00:16:04.359Z,13.29
2022-09-01T00:17:09.838Z,13.29
2022-09-01T00:18:13.660Z,13.29
2022-09-01T00:19:15.964Z,13.29
2022-09-01T00:20:20.742Z,13.26
2022-09-01T00:21:26.167Z,13.28
2022-09-01T00:22:29.817Z,13.27
2022-09-01T00:23:32.016Z,13.27
2022-09-01T00:24:35.297Z,13.24
2022-09-01T00:25:37.519Z,13.24
2022-09-01T00:26:41.259Z,13.22
2022-09-01T00:27:44.941Z,13.24
2022-09-01T00:28:48.305Z,13.23
2022-09-01T00:29:50.473Z,13.20
2022-09-01T00:30:54.212Z,13.20
2022-09-01T00:31:57.372Z,13.20
2022-09-01T00:33:00.529Z,13.18
2022-09-01T00:34:03.606Z,13.14
2022-09-01T00:35:08.804Z,13.16
2022-09-01T00:36:10.996Z,13.16
2022-09-01T00:37:14.146Z,13.15
2022-09-01T00:38:16.667Z,13.13
2022-09-01T00:39:20.034Z,13.11
2022-09-01T00:40:22.444Z,13.09
2022-09-01T00:41:28.756Z,13.08
2022-09-01T00:42:31.127Z,13.08
2022-09-01T00:43:45.796Z,13.06
2022-09-01T00:44:48.256Z,13.04
2022-09-01T00:45:52.455Z,13.03
2022-09-01T00:46:56.926Z,13.02
2022-09-01T00:48:00.254Z,13.00
2022-09-01T00:49:06.089Z,13.00
2022-09-01T00:50:11.527Z,12.97
2022-09-01T00:51:14.079Z,12.96
2022-09-01T00:52:22.127Z,12.95
2022-09-01T00:53:24.889Z,12.94
2022-09-01T00:54:32.402Z,12.92
2022-09-01T00:55:37.147Z,12.90
2022-09-01T00:56:42.184Z,12.87
2022-09-01T00:57:50.158Z,12.83
2022-09-01T00:58:54.123Z,12.84
2022-09-01T01:00:01.976Z,12.82
2022-09-01T01:01:05.413Z,12.78
2022-09-01T01:02:08.652Z,12.80
2022-09-01T01:03:11.945Z,12.74
2022-09-01T01:04:16.012Z,12.77
2022-09-01T01:05:18.656Z,12.74
2022-09-01T01:06:26.923Z,12.73
2022-09-01T01:07:38.871Z,12.70
2022-09-01T01:08:58.938Z,12.68
2022-09-01T01:10:02.380Z,12.61
2022-09-01T01:11:07.716Z,12.64
2022-09-01T01:12:18.546Z,12.63
2022-09-01T01:13:21.130Z,12.59
2022-09-01T01:14:28.947Z,12.59
2022-09-01T01:15:31.135Z,12.57
2022-09-01T01:16:35.078Z,12.56
2022-09-01T01:17:37.755Z,12.55
2022-09-01T01:18:41.030Z,12.52
2022-09-01T01:20:04.220Z,12.51
2022-09-01T01:21:31.744Z,12.49
2022-09-01T01:23:00.184Z,12.45
2022-09-01T01:24:10.724Z,12.45
2022-09-01T01:25:14.504Z,12.44
2022-09-01T01:26:17.809Z,12.42
2022-09-01T01:27:21.836Z,12.40
2022-09-01T01:28:32.111Z,12.37
2022-09-01T01:29:38.777Z,12.37
2022-09-01T01:30:44.986Z,12.36
2022-09-01T01:31:49.677Z,12.34
2022-09-01T01:32:52.857Z,12.32
2022-09-01T01:33:56.871Z,12.32
2022-09-01T01:35:03.696Z,12.30
2022-09-01T01:36:07.979Z,12.28
2022-09-01T01:37:10.910Z,12.27
2022-09-01T01:38:15.537Z,12.25
2022-09-01T01:39:22.750Z,12.20
2022-09-01T01:40:29.227Z,12.22
2022-09-01T01:41:35.626Z,12.20
2022-09-01T01:42:38.741Z,12.16
2022-09-01T01:43:42.973Z,12.18
2022-09-01T01:44:46.487Z,12.16
2022-09-01T01:45:52.170Z,12.16
2022-09-01T01:46:57.394Z,12.14
2022-09-01T01:48:08.702Z,12.13
2022-09-01T01:49:13.344Z,12.11
2022-09-01T01:50:17.713Z,12.09
2022-09-01T01:51:25.063Z,12.08
2022-09-01T01:52:28.916Z,12.06
2022-09-01T01:53:33.622Z,12.06
2022-09-01T01:54:37.545Z,12.00
2022-09-01T01:55:43.835Z,12.01
2022-09-01T01:56:47.164Z,12.03
2022-09-01T01:57:50.134Z,12.00
2022-09-01T01:58:54.797Z,11.98
2022-09-01T01:59:56.964Z,11.99
2022-09-01T02:01:00.738Z,11.99
2022-09-01T02:02:03.902Z,11.97
2022-09-01T02:03:07.632Z,11.96
2022-09-01T02:04:11.303Z,11.95
2022-09-01T02:05:20.933Z,11.94
2022-09-01T02:06:25.302Z,11.92
2022-09-01T02:07:33.007Z,11.91
2022-09-01T02:08:38.158Z,11.91
2022-09-01T02:09:46.041Z,11.89
2022-09-01T02:10:55.201Z,11.87
2022-09-01T02:11:58.824Z,11.86
2022-09-01T02:13:05.986Z,11.84
2022-09-01T02:14:09.655Z,11.84
2022-09-01T02:15:13.193Z,11.83
2022-09-01T02:16:16.971Z,11.79
2022-09-01T02:17:21.291Z,11.81
2022-09-01T02:18:28.575Z,11.80
2022-09-01T02:19:36.804Z,11.80
2022-09-01T02:20:41.052Z,11.78
2022-09-01T02:21:44.713Z,11.79
2022-09-01T02:22:47.012Z,11.78
2022-09-01T02:24:00.321Z,11.78
2022-09-01T02:25:02.575Z,11.78
2022-09-01T02:26:17.330Z,11.78
2022-09-01T02:27:26.939Z,11.78
2022-09-01T02:28:33.020Z,11.76
2022-09-01T02:29:40.159Z,11.75
2022-09-01T02:30:47.855Z,11.73
2022-09-01T02:31:54.398Z,11.72
2022-09-01T02:32:58.507Z,11.72
2022-09-01T02:34:02.766Z,11.68
2022-09-01T02:35:10.057Z,11.69
2022-09-01T02:36:17.877Z,11.67
2022-09-01T02:37:25.268Z,11.66
2022-09-01T02:38:31.207Z,11.64
2022-09-01T02:39:34.397Z,11.66
2022-09-01T02:40:41.289Z,11.63
2022-09-01T02:41:46.200Z,11.64
2022-09-01T02:42:49.147Z,11.62
2022-09-01T02:43:52.480Z,11.62
2022-09-01T02:44:55.304Z,11.60
2022-09-01T02:46:02.397Z,11.60
2022-09-01T02:47:10.080Z,11.59
2022-09-01T02:48:14.055Z,11.59
2022-09-01T02:49:19.891Z,11.55
2022-09-01T02:50:24.921Z,11.57
2022-09-01T02:51:27.109Z,11.55
2022-09-01T02:52:37.628Z,11.57
2022-09-01T02:53:41.766Z,11.56
2022-09-01T02:54:45.967Z,11.55
2022-09-01T02:55:48.257Z,11.55
2022-09-01T02:56:54.845Z,11.54
2022-09-01T02:57:58.846Z,11.55
2022-09-01T02:59:03.142Z,11.53
2022-09-01T03:00:20.753Z,11.53
2022-09-01T03:01:27.330Z,11.53
2022-09-01T03:02:30.122Z,11.53
2022-09-01T03:03:35.999Z,11.51
2022-09-01T03:04:38.965Z,11.51
2022-09-01T03:05:42.273Z,11.51
2022-09-01T03:06:45.179Z,11.51
2022-09-01T03:07:54.154Z,11.51
2022-09-01T03:08:59.753Z,11.50
2022-09-01T03:10:03.445Z,11.49
2022-09-01T03:11:13.064Z,11.47
2022-09-01T03:12:18.105Z,11.48
2022-09-01T03:13:23.768Z,11.47
2022-09-01T03:14:28.078Z,11.47
2022-09-01T03:15:30.367Z,11.45
2022-09-01T03:16:33.845Z,11.45
2022-09-01T03:17:36.146Z,11.44
2022-09-01T03:18:40.720Z,11.44
2022-09-01T03:19:45.294Z,11.43
2022-09-01T03:20:52.984Z,11.40
2022-09-01T03:22:00.196Z,11.42
2022-09-01T03:23:08.670Z,11.40
2022-09-01T03:24:15.273Z,11.38
2022-09-01T03:25:18.911Z,11.39
2022-09-01T03:26:24.298Z,11.38
2022-09-01T03:27:27.967Z,11.36
2022-09-01T03:28:32.024Z,11.36
2022-09-01T03:29:36.816Z,11.35
2022-09-01T03:30:45.200Z,11.35
2022-09-01T03:31:47.969Z,11.33
2022-09-01T03:32:51.724Z,11.33
2022-09-01T03:33:57.109Z,11.31
2022-09-01T03:35:06.600Z,11.29
2022-09-01T03:36:15.086Z,11.30
2022-09-01T03:37:20.954Z,11.04
2022-09-01T03:38:24.708Z,11.29
2022-09-01T03:39:29.787Z,11.26
2022-09-01T03:40:36.422Z,11.27
2022-09-01T03:41:40.228Z,11.27
2022-09-01T03:42:45.068Z,11.25
2022-09-01T03:43:48.751Z,11.24
2022-09-01T03:44:52.030Z,11.25
2022-09-01T03:45:56.430Z,11.25
2022-09-01T03:47:01.466Z,11.24
2022-09-01T03:48:08.981Z,11.23
2022-09-01T03:49:15.645Z,11.23
2022-09-01T03:50:22.520Z,11.22
2022-09-01T03:51:31.166Z,11.21
2022-09-01T03:52:39.352Z,11.21
2022-09-01T03:53:41.587Z,11.21
2022-09-01T03:54:46.052Z,11.21
2022-09-01T03:55:49.401Z,11.15
2022-09-01T03:56:52.701Z,11.20
2022-09-01T03:58:00.956Z,11.21
2022-09-01T03:59:04.425Z,11.20
2022-09-01T04:00:20.495Z,11.20
2022-09-01T04:01:24.341Z,11.16
2022-09-01T04:02:29.831Z,11.17
2022-09-01T04:03:36.203Z,11.20
2022-09-01T04:04:38.722Z,11.21
2022-09-01T04:05:46.179Z,11.22
2022-09-01T04:06:49.376Z,11.22
2022-09-01T04:07:52.366Z,11.22
2022-09-01T04:09:03.081Z,11.21
2022-09-01T04:10:11.593Z,11.21
2022-09-01T04:11:18.846Z,11.22
2022-09-01T04:12:25.911Z,11.21
2022-09-01T04:13:35.539Z,11.20
2022-09-01T04:14:37.827Z,11.20
2022-09-01T04:15:41.069Z,11.19
2022-09-01T04:17:03.263Z,11.15
2022-09-01T04:18:09.746Z,11.17
2022-09-01T04:19:20.283Z,11.17
2022-09-01T04:20:23.818Z,11.16
2022-09-01T04:21:26.436Z,11.13
2022-09-01T04:22:32.083Z,11.16
2022-09-01T04:23:37.215Z,11.12
2022-09-01T04:24:46.923Z,11.11
2022-09-01T04:25:50.569Z,11.15
2022-09-01T04:26:56.341Z,11.14
2022-09-01T04:27:58.797Z,11.13
2022-09-01T04:29:03.342Z,11.12
2022-09-01T04:30:10.744Z,11.12
2022-09-01T04:31:19.160Z,11.10
2022-09-01T04:32:24.415Z,11.10
2022-09-01T04:33:34.888Z,11.10
2022-09-01T04:34:39.936Z,11.08
2022-09-01T04:35:44.762Z,11.08
2022-09-01T04:36:46.945Z,11.07
2022-09-01T04:37:54.128Z,11.06
2022-09-01T04:38:58.638Z,11.04
2022-09-01T04:40:03.730Z,11.05
2022-09-01T04:41:07.672Z,11.05
2022-09-01T04:42:11.216Z,11.05
2022-09-01T04:43:13.434Z,11.03
2022-09-01T04:44:19.712Z,11.04
2022-09-01T04:45:27.423Z,11.03
2022-09-01T04:46:31.419Z,11.03
2022-09-01T04:47:36.056Z,11.00
2022-09-01T04:48:43.354Z,11.02
2022-09-01T04:49:49.084Z,11.02
2022-09-01T04:50:52.503Z,11.01
2022-09-01T04:52:07.096Z,11.01
2022-09-01T04:53:12.169Z,11.02
2022-09-01T04:54:18.332Z,11.03
2022-09-01T04:55:22.358Z,11.02
2022-09-01T04:56:26.834Z,11.03
2022-09-01T04:57:47.663Z,11.04
2022-09-01T04:58:50.038Z,11.04
2022-09-01T04:59:56.939Z,11.04
2022-09-01T05:01:00.407Z,11.07
2022-09-01T05:02:07.825Z,11.07
2022-09-01T05:03:10.404Z,11.07
2022-09-01T05:04:33.949Z,11.08
2022-09-01T05:05:42.546Z,11.09
2022-09-01T05:06:47.208Z,11.11
2022-09-01T05:07:51.920Z,11.11
2022-09-01T05:08:57.796Z,11.13
2022-09-01T05:10:13.813Z,11.13
2022-09-01T05:11:24.135Z,11.15
2022-09-01T05:12:33.708Z,11.15
2022-09-01T05:13:38.981Z,11.16
2022-09-01T05:14:43.742Z,11.17
2022-09-01T05:15:48.741Z,11.20
2022-09-01T05:16:57.175Z,11.21
2022-09-01T05:18:02.358Z,11.22
2022-09-01T05:19:06.467Z,11.23
2022-09-01T05:20:12.009Z,11.25
2022-09-01T05:21:17.562Z,11.24
2022-09-01T05:22:22.259Z,11.27
2022-09-01T05:23:40.457Z,11.29
2022-09-01T05:24:44.782Z,11.30
2022-09-01T05:25:49.610Z,11.31
2022-09-01T05:26:52.859Z,11.33
2022-09-01T05:27:55.776Z,11.35
2022-09-01T05:29:01.813Z,11.37
2022-09-01T05:30:11.021Z,11.38
2022-09-01T05:31:19.811Z,11.40
2022-09-01T05:32:26.112Z,11.43
2022-09-01T05:33:29.996Z,11.45
2022-09-01T05:34:36.458Z,11.47
2022-09-01T05:35:43.581Z,11.47
2022-09-01T05:36:50.772Z,11.51
2022-09-01T05:37:54.718Z,11.53
2022-09-01T05:38:58.117Z,11.53
2022-09-01T05:40:02.451Z,11.58
2022-09-01T05:41:08.629Z,11.60
2022-09-01T05:42:12.072Z,11.63
2022-09-01T05:43:14.933Z,11.66
2022-09-01T05:44:18.876Z,11.69
2022-09-01T05:45:23.791Z,11.74
2022-09-01T05:46:30.152Z,11.76
2022-09-01T05:47:37.546Z,11.79
2022-09-01T05:48:40.965Z,11.82
2022-09-01T05:49:44.766Z,11.86
2022-09-01T05:50:49.737Z,11.87
2022-09-01T05:51:54.160Z,11.91
2022-09-01T05:52:58.262Z,11.94
2022-09-01T05:54:02.047Z,11.98
2022-09-01T05:55:09.068Z,12.01
2022-09-01T05:56:15.100Z,12.06
2022-09-01T05:57:33.874Z,12.10
2022-09-01T06:00:02.241Z,12.20
2022-09-01T06:01:22.313Z,12.25
2022-09-01T06:02:28.819Z,12.30
2022-09-01T06:03:38.035Z,12.35
2022-09-01T06:04:44.334Z,12.41
2022-09-01T06:05:53.106Z,12.44
2022-09-01T06:07:06.519Z,12.47
2022-09-01T06:08:10.821Z,12.54
2022-09-01T06:09:18.115Z,12.57
2022-09-01T06:10:21.596Z,12.62
2022-09-01T06:11:25.850Z,12.66
2022-09-01T06:12:29.071Z,12.71
2022-09-01T06:13:32.520Z,12.74
2022-09-01T06:14:36.626Z,12.78
2022-09-01T06:15:40.207Z,12.80
2022-09-01T06:16:43.626Z,12.83
2022-09-01T06:17:49.085Z,12.87
2022-09-01T06:18:53.420Z,12.90
2022-09-01T06:19:59.545Z,12.94
2022-09-01T06:21:04.294Z,12.99
2022-09-01T06:22:07.446Z,13.03
2022-09-01T06:23:10.029Z,13.06
2022-09-01T06:24:13.178Z,13.11
2022-09-01T06:25:17.438Z,13.14
2022-09-01T06:26:27.179Z,13.20
2022-09-01T06:27:29.496Z,13.25
2022-09-01T06:28:32.884Z,13.30
2022-09-01T06:29:35.277Z,13.35
2022-09-01T06:30:38.929Z,13.39
2022-09-01T06:31:45.962Z,13.45
2022-09-01T06:32:51.532Z,13.50
2022-09-01T06:33:54.898Z,13.55
2022-09-01T06:35:00.492Z,13.60
2022-09-01T06:36:04.074Z,13.66
2022-09-01T06:37:07.178Z,13.71
2022-09-01T06:38:11.364Z,13.76
2022-09-01T06:39:22.658Z,13.82
2022-09-01T06:40:28.804Z,13.88
2022-09-01T06:41:32.643Z,13.93
2022-09-01T06:42:35.387Z,13.98
2022-09-01T06:43:40.137Z,14.04
2022-09-01T06:44:42.936Z,14.09
2022-09-01T06:45:49.926Z,14.13
2022-09-01T06:46:53.790Z,14.18
2022-09-01T06:48:00.237Z,14.22
2022-09-01T06:49:04.376Z,14.28
2022-09-01T06:50:08.648Z,14.33
2022-09-01T06:51:16.060Z,14.38
2022-09-01T06:52:21.145Z,14.45
2022-09-01T06:53:32.818Z,14.50
2022-09-01T06:54:43.781Z,14.55
2022-09-01T06:55:49.604Z,14.60
2022-09-01T06:56:53.524Z,14.66
2022-09-01T06:58:05.861Z,14.71
2022-09-01T06:59:10.124Z,14.76
2022-09-01T07:01:41.134Z,14.86
2022-09-01T07:02:45.645Z,14.90
2022-09-01T07:04:13.475Z,14.99
2022-09-01T07:08:25.023Z,15.18
2022-09-01T07:09:48.027Z,15.23
2022-09-01T07:13:08.604Z,15.38
2022-09-01T07:14:16.177Z,15.45
2022-09-01T07:16:51.957Z,15.55
2022-09-01T07:17:58.483Z,15.64
2022-09-01T07:19:03.409Z,15.69
2022-09-01T07:20:27.285Z,15.74
2022-09-01T07:21:39.392Z,15.81
2022-09-01T07:24:10.881Z,15.95
2022-09-01T07:25:17.468Z,16.02
2022-09-01T07:26:47.628Z,16.08
2022-09-01T07:27:50.851Z,16.14
2022-09-01T07:29:04.185Z,16.19
2022-09-01T07:30:10.717Z,16.24
2022-09-01T07:32:47.625Z,16.37
2022-09-01T07:36:25.649Z,16.50
2022-09-01T07:39:55.057Z,16.74
2022-09-01T07:41:43.316Z,14.81
2022-09-01T07:44:26.228Z,16.98
2022-09-01T07:46:00.459Z,17.04
2022-09-01T07:47:51.798Z,17.09
2022-09-01T07:49:01.793Z,17.15
2022-09-01T07:50:24.131Z,17.21
2022-09-01T07:51:37.770Z,17.27
2022-09-01T07:52:43.243Z,17.28
2022-09-01T07:53:50.236Z,17.37
2022-09-01T07:54:55.557Z,17.42
2022-09-01T07:56:00.497Z,17.46
2022-09-01T07:57:03.044Z,17.52
2022-09-01T07:58:08.646Z,17.58
2022-09-01T07:59:15.228Z,17.61
2022-09-01T08:00:45.142Z,17.69
2022-09-01T08:01:51.227Z,17.73
2022-09-01T08:02:57.092Z,17.78
2022-09-01T08:04:02.942Z,17.83
2022-09-01T08:05:09.381Z,17.87
2022-09-01T08:06:14.640Z,17.92
2022-09-01T08:07:18.196Z,17.95
2022-09-01T08:08:24.995Z,17.99
2022-09-01T08:09:38.028Z,18.04
2022-09-01T08:10:43.045Z,18.08
2022-09-01T08:12:02.933Z,18.11
2022-09-01T08:13:15.375Z,18.17
2022-09-01T08:14:19.122Z,18.22
2022-09-01T08:16:52.928Z,18.32
2022-09-01T08:17:55.719Z,18.36
2022-09-01T08:19:01.459Z,18.41
2022-09-01T08:20:10.526Z,18.45
2022-09-01T08:21:40.980Z,18.50
2022-09-01T08:23:05.661Z,18.54
2022-09-01T08:24:10.827Z,18.59
2022-09-01T08:25:15.702Z,18.61
2022-09-01T08:26:22.583Z,18.66
2022-09-01T08:27:24.723Z,18.70
2022-09-01T08:28:28.143Z,18.73
2022-09-01T08:29:32.244Z,18.79
2022-09-01T08:30:37.021Z,18.82
2022-09-01T08:31:39.632Z,18.88
2022-09-01T08:32:43.230Z,18.91
2022-09-01T08:33:47.611Z,18.96
2022-09-01T08:34:51.341Z,19.00
2022-09-01T08:35:55.413Z,19.05
2022-09-01T08:36:58.818Z,19.07
2022-09-01T08:38:01.149Z,19.12
2022-09-01T08:39:06.222Z,19.16
2022-09-01T08:40:13.065Z,19.18
2022-09-01T08:41:20.043Z,19.22
2022-09-01T08:42:45.364Z,19.24
2022-09-01T08:43:58.969Z,19.27
2022-09-01T08:45:10.734Z,19.26
2022-09-01T08:46:20.012Z,19.26
2022-09-01T08:47:43.711Z,19.28
2022-09-01T08:50:36.284Z,19.34
2022-09-01T08:52:07.741Z,19.36
2022-09-01T08:53:22.541Z,19.40
2022-09-01T08:54:38.194Z,19.45
2022-09-01T08:55:45.105Z,19.50
2022-09-01T08:56:53.009Z,19.54
2022-09-01T08:58:02.142Z,19.58
2022-09-01T08:59:29.099Z,19.64
2022-09-01T09:00:57.930Z,19.70
2022-09-01T09:02:12.871Z,19.75
2022-09-01T09:03:27.181Z,19.77
2022-09-01T09:04:49.228Z,19.84
2022-09-01T09:06:04.650Z,19.90
2022-09-01T09:07:14.179Z,19.94
2022-09-01T09:08:43.875Z,19.99
2022-09-01T09:10:00.485Z,20.03
2022-09-01T09:11:06.758Z,20.08
2022-09-01T09:12:31.191Z,20.13
2022-09-01T09:14:01.506Z,20.17
2022-09-01T09:15:16.305Z,20.20
2022-09-01T09:16:26.327Z,20.22
2022-09-01T09:17:34.525Z,20.23
2022-09-01T09:18:59.807Z,20.24
2022-09-01T09:20:03.753Z,20.24
2022-09-01T09:21:12.175Z,20.25
2022-09-01T09:22:17.360Z,20.28
2022-09-01T09:23:29.460Z,20.29
2022-09-01T09:24:48.382Z,20.28
2022-09-01T09:25:52.130Z,20.29
2022-09-01T09:26:57.202Z,20.28
2022-09-01T09:28:00.819Z,20.30
2022-09-01T09:29:03.316Z,20.34
2022-09-01T09:30:11.836Z,20.38
2022-09-01T09:31:32.461Z,20.43
2022-09-01T09:34:19.119Z,20.51
2022-09-01T09:35:29.372Z,20.53
2022-09-01T09:36:35.876Z,20.56
2022-09-01T09:37:39.164Z,20.60
2022-09-01T09:38:41.277Z,20.64
2022-09-01T09:39:44.490Z,20.66
2022-09-01T09:42:24.042Z,20.74
2022-09-01T09:43:29.672Z,20.77
2022-09-01T09:44:33.007Z,20.76
2022-09-01T09:45:41.662Z,20.80
2022-09-01T09:46:47.713Z,20.84
2022-09-01T09:47:50.951Z,20.87
2022-09-01T09:49:12.387Z,20.90
2022-09-01T09:50:20.868Z,20.95
2022-09-01T09:51:23.964Z,20.97
2022-09-01T09:52:27.017Z,20.99
2022-09-01T09:53:32.627Z,21.02
2022-09-01T09:54:38.359Z,21.03
2022-09-01T09:55:56.123Z,21.05
2022-09-01T09:57:13.421Z,21.07
2022-09-01T09:58:15.725Z,21.08
2022-09-01T09:59:56.034Z,21.11
2022-09-01T10:01:03.735Z,21.13
2022-09-01T10:02:28.367Z,21.17
2022-09-01T10:03:42.531Z,21.15
2022-09-01T10:04:44.744Z,21.26
2022-09-01T10:05:51.702Z,21.30
2022-09-01T10:06:54.378Z,21.34
2022-09-01T10:07:58.420Z,21.37
2022-09-01T10:09:02.116Z,21.40
2022-09-01T10:10:25.768Z,21.45
2022-09-01T10:11:35.538Z,21.50
2022-09-01T10:12:40.571Z,21.55
2022-09-01T10:13:42.706Z,21.59
2022-09-01T10:14:53.651Z,21.62
2022-09-01T10:15:58.244Z,21.65
2022-09-01T10:17:07.085Z,21.68
2022-09-01T10:18:20.602Z,21.70
2022-09-01T10:19:31.121Z,21.73
2022-09-01T10:20:38.659Z,21.78
2022-09-01T10:21:44.877Z,21.84
2022-09-01T10:22:50.654Z,21.90
2022-09-01T10:23:53.685Z,21.95
2022-09-01T10:24:57.814Z,22.01
2022-09-01T10:26:09.611Z,22.06
2022-09-01T10:27:20.144Z,22.14
2022-09-01T10:28:24.720Z,22.20
2022-09-01T10:29:35.162Z,22.25
2022-09-01T10:30:48.111Z,22.30
2022-09-01T10:32:03.492Z,22.37
2022-09-01T10:33:20.961Z,22.38
2022-09-01T10:34:25.868Z,22.43
2022-09-01T10:35:32.387Z,22.46
2022-09-01T10:36:37.374Z,22.50
2022-09-01T10:37:42.173Z,22.51
2022-09-01T10:38:52.774Z,22.51
2022-09-01T10:40:21.012Z,22.55
2022-09-01T10:42:00.311Z,22.55
2022-09-01T10:43:37.855Z,22.57
2022-09-01T10:44:58.087Z,22.60
2022-09-01T10:46:05.991Z,22.63
2022-09-01T10:47:26.974Z,22.63
2022-09-01T10:48:36.602Z,22.58
2022-09-01T10:50:07.723Z,22.48
2022-09-01T10:51:51.375Z,22.38
2022-09-01T10:53:00.782Z,22.32
2022-09-01T10:54:05.825Z,22.29
2022-09-01T10:55:08.862Z,22.29
2022-09-01T10:56:28.108Z,22.29
2022-09-01T10:57:43.601Z,22.28
2022-09-01T11:02:28.109Z,22.35
2022-09-01T11:03:56.240Z,22.40
2022-09-01T11:05:18.436Z,22.45
2022-09-01T11:08:24.579Z,22.50
2022-09-01T11:09:29.273Z,22.48
2022-09-01T11:10:47.668Z,22.44
2022-09-01T11:12:30.637Z,22.39
2022-09-01T11:13:46.407Z,22.33
2022-09-01T11:14:56.986Z,22.28
2022-09-01T11:17:59.660Z,22.28
2022-09-01T11:19:32.028Z,22.30
2022-09-01T11:20:39.166Z,22.30
2022-09-01T11:21:43.374Z,22.38
2022-09-01T11:23:00.172Z,22.43
2022-09-01T11:24:37.803Z,22.47
2022-09-01T11:25:44.804Z,22.50
2022-09-01T11:26:50.020Z,22.53
2022-09-01T11:28:04.073Z,22.57
2022-09-01T11:29:07.210Z,22.60
2022-09-01T11:30:16.089Z,22.67
2022-09-01T11:31:26.998Z,22.69
2022-09-01T11:32:35.578Z,22.80
2022-09-01T11:33:53.447Z,22.89
2022-09-01T11:34:59.867Z,22.96
2022-09-01T11:36:05.705Z,23.02
2022-09-01T11:37:16.244Z,23.08
2022-09-01T11:38:18.858Z,23.13
2022-09-01T11:39:44.205Z,23.18
2022-09-01T11:40:55.851Z,23.24
2022-09-01T11:42:04.677Z,23.25
2022-09-01T11:43:22.161Z,23.30
2022-09-01T11:44:36.796Z,23.35
2022-09-01T11:45:51.063Z,23.41
2022-09-01T11:47:00.399Z,23.44
2022-09-01T11:48:10.056Z,23.51
2022-09-01T11:49:30.538Z,23.58
2022-09-01T11:50:35.799Z,23.64
2022-09-01T11:51:45.996Z,23.70
2022-09-01T11:53:00.163Z,23.73
2022-09-01T11:57:56.936Z,23.90
2022-09-01T11:59:00.381Z,23.92
2022-09-01T12:00:09.132Z,23.96
2022-09-01T12:01:20.389Z,23.95
2022-09-01T12:02:27.006Z,23.94
2022-09-01T12:03:30.501Z,23.87
2022-09-01T12:04:38.039Z,23.87
2022-09-01T12:05:40.485Z,23.82
2022-09-01T12:06:54.652Z,23.73
2022-09-01T12:07:58.906Z,23.65
2022-09-01T12:09:04.874Z,23.57
2022-09-01T12:10:18.691Z,23.48
2022-09-01T12:11:25.860Z,23.38
2022-09-01T12:12:32.258Z,23.30
2022-09-01T12:13:36.052Z,23.20
2022-09-01T12:15:02.110Z,23.13
2022-09-01T12:16:20.949Z,23.00
2022-09-01T12:17:25.861Z,22.87
2022-09-01T12:18:30.825Z,22.82
2022-09-01T12:19:38.620Z,22.76
2022-09-01T12:20:41.403Z,22.75
2022-09-01T12:21:56.965Z,22.75
2022-09-01T12:23:02.323Z,22.75
2022-09-01T12:24:16.073Z,22.81
2022-09-01T12:25:22.729Z,22.90
2022-09-01T12:26:28.451Z,23.02
2022-09-01T12:27:30.796Z,23.15
2022-09-01T12:28:35.727Z,23.29
2022-09-01T12:29:38.226Z,23.39
2022-09-01T12:30:43.659Z,23.61
2022-09-01T12:31:50.478Z,23.76
2022-09-01T12:34:36.857Z,24.13
2022-09-01T12:35:40.052Z,24.28
2022-09-01T12:36:42.771Z,24.40
2022-09-01T12:37:46.433Z,24.56
2022-09-01T12:38:49.010Z,24.68
2022-09-01T12:39:54.587Z,24.81
2022-09-01T12:40:57.801Z,24.89
2022-09-01T12:42:08.267Z,25.02
2022-09-01T12:43:10.487Z,25.10
2022-09-01T12:44:30.838Z,25.15
2022-09-01T12:45:40.024Z,25.20
2022-09-01T12:46:46.443Z,25.21
2022-09-01T12:47:50.871Z,25.24
2022-09-01T12:48:55.709Z,25.25
2022-09-01T12:49:58.904Z,25.24
2022-09-01T12:51:04.147Z,25.20
2022-09-01T12:52:14.673Z,25.15
2022-09-01T12:53:37.199Z,25.03
2022-09-01T12:54:40.044Z,24.91
2022-09-01T12:56:00.847Z,24.77
2022-09-01T12:57:04.127Z,24.68
2022-09-01T12:58:09.310Z,24.62
2022-09-01T12:59:15.804Z,24.55
2022-09-01T13:00:23.459Z,24.54
2022-09-01T13:01:33.609Z,24.51
2022-09-01T13:02:38.540Z,24.49
2022-09-01T13:03:41.916Z,24.50
2022-09-01T13:04:45.943Z,24.57
2022-09-01T13:05:53.604Z,24.70
2022-09-01T13:07:02.499Z,24.90
2022-09-01T13:08:08.665Z,25.12
2022-09-01T13:09:10.871Z,25.34
2022-09-01T13:10:14.731Z,25.55
2022-09-01T13:11:21.928Z,25.77
2022-09-01T13:12:26.510Z,25.99
2022-09-01T13:13:29.015Z,26.20
2022-09-01T13:14:32.367Z,26.39
2022-09-01T13:15:37.478Z,26.58
2022-09-01T13:16:40.152Z,26.79
2022-09-01T13:17:43.645Z,26.97
2022-09-01T13:20:12.689Z,27.35
2022-09-01T13:21:16.854Z,27.49
2022-09-01T13:22:20.742Z,27.64
2022-09-01T13:23:23.465Z,27.77
2022-09-01T13:24:30.406Z,27.90
2022-09-01T13:25:35.696Z,28.03
2022-09-01T13:26:38.002Z,28.06
2022-09-01T13:27:44.326Z,28.08
2022-09-01T13:28:47.565Z,28.04
2022-09-01T13:29:50.357Z,28.01
2022-09-01T13:32:24.048Z,27.83
2022-09-01T13:33:28.521Z,27.70
2022-09-01T13:34:30.811Z,27.59
2022-09-01T13:35:36.068Z,27.39
2022-09-01T13:36:42.917Z,27.18
2022-09-01T13:37:47.782Z,26.91
2022-09-01T13:38:51.984Z,26.63
2022-09-01T13:39:59.078Z,26.32
2022-09-01T13:41:01.833Z,26.02
2022-09-01T13:42:05.193Z,25.73
2022-09-01T13:43:08.705Z,25.45
2022-09-01T13:44:12.030Z,25.19
2022-09-01T13:45:16.843Z,24.92
2022-09-01T13:46:20.151Z,24.69
2022-09-01T13:47:31.832Z,24.48
2022-09-01T13:50:09.212Z,24.07
2022-09-01T13:51:25.545Z,23.89
2022-09-01T13:52:27.837Z,23.77
2022-09-01T13:53:31.011Z,23.68
2022-09-01T13:54:33.166Z,23.58
2022-09-01T13:55:39.787Z,23.50
2022-09-01T13:56:41.988Z,23.44
2022-09-01T13:57:45.281Z,23.40
2022-09-01T13:58:48.636Z,23.36
2022-09-01T13:59:52.219Z,23.28
2022-09-01T14:00:56.364Z,23.30
2022-09-01T14:01:58.748Z,23.27
2022-09-01T14:03:07.601Z,23.25
2022-09-01T14:04:13.190Z,23.22
2022-09-01T14:05:17.996Z,23.19
2022-09-01T14:06:23.147Z,23.18
2022-09-01T14:07:30.870Z,23.13
2022-09-01T14:08:34.443Z,23.09
2022-09-01T14:09:36.705Z,23.02
2022-09-01T14:10:42.850Z,22.97
2022-09-01T14:11:47.447Z,22.89
2022-09-01T14:12:54.960Z,22.86
2022-09-01T14:13:59.747Z,22.79
2022-09-01T14:15:12.281Z,22.76
2022-09-01T14:16:18.111Z,22.69
2022-09-01T14:17:20.644Z,22.63
2022-09-01T14:18:24.943Z,22.58
2022-09-01T14:19:29.330Z,22.55
2022-09-01T14:20:37.162Z,22.54
2022-09-01T14:21:41.632Z,22.52
2022-09-01T14:22:45.896Z,22.53
2022-09-01T14:23:50.071Z,22.51
2022-09-01T14:24:56.253Z,22.50
2022-09-01T14:26:00.582Z,22.51
2022-09-01T14:27:03.722Z,22.51
2022-09-01T14:28:07.659Z,22.52
2022-09-01T14:29:10.024Z,22.53
2022-09-01T14:30:21.817Z,22.56
2022-09-01T14:31:27.624Z,22.59
2022-09-01T14:32:29.918Z,22.62
2022-09-01T14:33:34.197Z,22.66
2022-09-01T14:34:37.407Z,22.69
2022-09-01T14:35:42.589Z,22.75
2022-09-01T14:36:47.611Z,22.77
2022-09-01T14:37:51.229Z,22.61
2022-09-01T14:38:54.268Z,22.87
2022-09-01T14:39:59.201Z,22.87
2022-09-01T14:41:03.413Z,22.94
2022-09-01T14:42:06.861Z,22.98
2022-09-01T14:43:14.379Z,23.04
2022-09-01T14:44:17.113Z,23.09
2022-09-01T14:45:22.548Z,23.17
2022-09-01T14:46:25.213Z,23.26
2022-09-01T14:47:28.514Z,23.36
2022-09-01T14:48:32.042Z,23.47
2022-09-01T14:49:36.630Z,23.61
2022-09-01T14:50:43.276Z,23.71
2022-09-01T14:53:12.379Z,23.94
2022-09-01T14:54:14.657Z,24.07
2022-09-01T14:55:18.107Z,24.17
2022-09-01T14:56:21.691Z,24.25
2022-09-01T14:57:29.401Z,24.34
2022-09-01T14:58:34.995Z,24.39
2022-09-01T14:59:37.405Z,24.38
2022-09-01T15:00:42.247Z,24.36
2022-09-01T15:01:44.605Z,24.29
2022-09-01T15:02:48.544Z,24.14
2022-09-01T15:03:51.777Z,24.05
2022-09-01T15:04:55.156Z,23.91
2022-09-01T15:05:58.332Z,23.76
2022-09-01T15:07:06.737Z,23.58
2022-09-01T15:08:15.492Z,23.43
2022-09-01T15:09:20.065Z,23.25
2022-09-01T15:10:26.208Z,23.10
2022-09-01T15:11:28.551Z,22.94
2022-09-01T15:12:31.783Z,22.82
2022-09-01T15:13:34.996Z,22.67